createdAt,value
2022-11-10T00:00:57.641Z,4.76
2022-11-10T00:03:24.873Z,4.74
2022-11-10T00:05:51.580Z,4.66
2022-11-10T00:08:18.250Z,4.79
2022-11-10T00:10:57.584Z,4.69
2022-11-10T00:13:26.488Z,4.50
2022-11-10T00:16:12.162Z,4.53
2022-11-10T00:18:39.048Z,4.47
2022-11-10T00:21:08.023Z,4.45
2022-11-10T00:23:34.743Z,4.43
2022-11-10T00:26:01.463Z,4.41
2022-11-10T00:28:30.540Z,4.38
2022-11-10T00:30:57.446Z,4.28
2022-11-10T00:33:24.331Z,4.13
2022-11-10T00:35:51.297Z,3.91
2022-11-10T00:38:17.895Z,3.86
2022-11-10T00:40:44.505Z,3.78
2022-11-10T00:43:11.153Z,3.91
2022-11-10T00:45:42.125Z,4.10
2022-11-10T00:48:08.853Z,4.19
2022-11-10T00:50:35.486Z,4.24
2022-11-10T00:53:02.345Z,4.25
2022-11-10T00:55:28.984Z,4.27
2022-11-10T00:57:55.628Z,4.33
2022-11-10T01:00:22.420Z,4.29
2022-11-10T01:02:49.036Z,4.02
2022-11-10T01:05:15.784Z,4.15
2022-11-10T01:07:42.388Z,4.14
2022-11-10T01:10:09.515Z,4.03
2022-11-10T01:12:36.345Z,4.07
2022-11-10T01:15:03.177Z,4.01
2022-11-10T01:17:30.367Z,3.88
2022-11-10T01:19:57.037Z,3.91
2022-11-10T01:22:23.752Z,3.95
2022-11-10T01:24:50.364Z,3.90
2022-11-10T01:27:17.100Z,3.87
2022-11-10T01:29:43.780Z,3.84
2022-11-10T01:32:10.492Z,3.78
2022-11-10T01:34:37.170Z,3.77
2022-11-10T01:37:03.776Z,3.77
2022-11-10T01:39:30.450Z,3.80
2022-11-10T01:41:57.044Z,3.84
2022-11-10T01:44:25.648Z,3.81
2022-11-10T01:46:52.360Z,3.69
2022-11-10T01:49:23.847Z,3.61
2022-11-10T01:52:13.323Z,3.44
2022-11-10T01:54:46.532Z,3.54
2022-11-10T01:57:15.245Z,3.59
2022-11-10T01:59:47.648Z,3.64
2022-11-10T02:02:28.607Z,3.54
2022-11-10T02:04:55.881Z,3.53
2022-11-10T02:07:23.090Z,3.50
2022-11-10T02:09:50.053Z,3.47
2022-11-10T02:12:36.989Z,3.45
2022-11-10T02:15:12.470Z,3.40
2022-11-10T02:17:39.362Z,3.36
2022-11-10T02:20:10.172Z,3.50
2022-11-10T02:22:37.874Z,3.46
2022-11-10T02:25:05.458Z,3.40
2022-11-10T02:27:32.121Z,3.39
2022-11-10T02:29:59.618Z,3.38
2022-11-10T02:32:26.385Z,3.41
2022-11-10T02:34:53.153Z,3.51
2022-11-10T02:37:19.877Z,3.55
2022-11-10T02:39:46.512Z,3.48
2022-11-10T02:42:13.137Z,3.48
2022-11-10T02:44:40.436Z,3.43
2022-11-10T02:47:07.576Z,3.29
2022-11-10T02:49:34.212Z,3.31
2022-11-10T02:52:00.908Z,3.29
2022-11-10T02:54:27.561Z,3.18
2022-11-10T02:56:54.265Z,3.19
2022-11-10T02:59:21.565Z,3.12
2022-11-10T03:01:48.275Z,3.31
2022-11-10T03:04:14.908Z,3.33
2022-11-10T03:06:41.646Z,3.47
2022-11-10T03:09:08.643Z,3.31
2022-11-10T03:11:35.237Z,3.31
2022-11-10T03:14:02.795Z,3.22
2022-11-10T03:16:30.044Z,3.15
2022-11-10T03:18:56.725Z,3.09
2022-11-10T03:21:23.319Z,3.09
2022-11-10T03:23:50.045Z,3.14
2022-11-10T03:26:16.705Z,3.15
2022-11-10T03:28:43.324Z,3.22
2022-11-10T03:31:10.080Z,3.19
2022-11-10T03:33:36.801Z,3.29
2022-11-10T03:36:03.694Z,3.02
2022-11-10T03:38:30.304Z,3.10
2022-11-10T03:41:18.363Z,3.09
2022-11-10T03:43:43.560Z,3.13
2022-11-10T03:46:10.369Z,2.97
2022-11-10T03:48:36.996Z,3.08
2022-11-10T03:51:03.754Z,2.94
2022-11-10T03:53:30.425Z,3.02
2022-11-10T03:56:01.227Z,3.03
2022-11-10T03:58:27.872Z,2.96
2022-11-10T04:00:55.124Z,2.92
2022-11-10T04:03:22.491Z,2.96
2022-11-10T04:06:07.950Z,2.97
2022-11-10T04:08:53.855Z,2.99
2022-11-10T04:11:39.695Z,2.90
2022-11-10T04:14:24.939Z,2.80
2022-11-10T04:16:51.540Z,2.64
2022-11-10T04:19:18.277Z,2.58
2022-11-10T04:21:44.983Z,2.68
2022-11-10T04:24:12.328Z,2.68
2022-11-10T04:26:40.591Z,2.74
2022-11-10T04:29:11.396Z,2.77
2022-11-10T04:31:41.809Z,2.77
2022-11-10T04:34:11.007Z,2.78
2022-11-10T04:36:39.375Z,2.79
2022-11-10T04:39:06.834Z,2.85
2022-11-10T04:41:34.437Z,2.91
2022-11-10T04:44:02.316Z,2.95
2022-11-10T04:46:40.222Z,2.88
2022-11-10T04:49:07.588Z,2.92
2022-11-10T04:51:38.867Z,2.79
2022-11-10T04:54:07.937Z,2.71
2022-11-10T04:56:35.055Z,2.62
2022-11-10T04:59:01.992Z,2.67
2022-11-10T05:01:29.279Z,2.51
2022-11-10T05:03:56.151Z,2.71
2022-11-10T05:06:23.640Z,2.70
2022-11-10T05:08:50.781Z,2.57
2022-11-10T05:11:20.285Z,2.55
2022-11-10T05:13:47.164Z,2.44
2022-11-10T05:16:14.103Z,2.52
2022-11-10T05:18:41.526Z,2.59
2022-11-10T05:21:08.538Z,2.72
2022-11-10T05:23:38.011Z,2.67
2022-11-10T05:26:10.867Z,2.75
2022-11-10T05:28:38.649Z,2.80
2022-11-10T05:31:05.760Z,2.77
2022-11-10T05:33:33.665Z,2.67
2022-11-10T05:36:01.070Z,2.61
2022-11-10T05:38:27.901Z,2.82
2022-11-10T05:40:54.742Z,2.93
2022-11-10T05:43:21.839Z,2.98
2022-11-10T05:45:48.864Z,3.03
2022-11-10T05:48:16.084Z,3.12
2022-11-10T05:50:43.881Z,3.16
2022-11-10T05:53:10.872Z,3.31
2022-11-10T05:55:37.703Z,3.29
2022-11-10T05:58:04.460Z,3.40
2022-11-10T06:00:32.220Z,3.29
2022-11-10T06:03:01.552Z,3.56
2022-11-10T06:05:31.477Z,3.62
2022-11-10T06:07:59.165Z,3.69
2022-11-10T06:10:26.077Z,3.62
2022-11-10T06:12:53.270Z,3.87
2022-11-10T06:15:20.317Z,3.95
2022-11-10T06:17:47.667Z,4.47
2022-11-10T06:20:15.421Z,5.45
2022-11-10T06:22:42.139Z,6.46
2022-11-10T06:25:10.408Z,7.61
2022-11-10T06:27:37.021Z,8.74
2022-11-10T06:30:04.288Z,9.57
2022-11-10T06:32:30.945Z,10.39
2022-11-10T06:35:00.468Z,11.26
2022-11-10T06:37:27.623Z,12.01
2022-11-10T06:39:54.276Z,12.60
2022-11-10T06:42:20.962Z,13.36
2022-11-10T06:44:47.595Z,13.56
2022-11-10T06:47:16.173Z,13.82
2022-11-10T06:49:42.799Z,14.66
2022-11-10T06:52:09.518Z,13.86
2022-11-10T06:54:36.132Z,14.10
2022-11-10T06:57:02.818Z,15.21
2022-11-10T06:59:29.511Z,15.24
2022-11-10T07:01:56.180Z,15.68
2022-11-10T07:04:22.890Z,15.62
2022-11-10T07:06:49.599Z,16.35
2022-11-10T07:09:16.434Z,16.68
2022-11-10T07:11:43.465Z,17.32
2022-11-10T07:14:10.442Z,17.67
2022-11-10T07:16:37.414Z,17.81
2022-11-10T07:19:04.254Z,17.05
2022-11-10T07:21:30.992Z,17.77
2022-11-10T07:23:57.668Z,18.11
2022-11-10T07:26:24.361Z,17.02
2022-11-10T07:28:51.013Z,17.94
2022-11-10T07:31:17.751Z,17.98
2022-11-10T07:33:45.155Z,16.82
2022-11-10T07:36:11.769Z,16.77
2022-11-10T07:38:38.432Z,17.34
2022-11-10T07:41:05.386Z,17.23
2022-11-10T07:43:32.352Z,16.42
2022-11-10T07:45:59.869Z,16.57
2022-11-10T07:48:26.561Z,16.08
2022-11-10T07:50:54.592Z,17.67
2022-11-10T07:53:22.357Z,19.11
2022-11-10T07:55:49.349Z,17.66
2022-11-10T07:58:17.925Z,17.29
2022-11-10T08:00:47.354Z,19.01
2022-11-10T08:03:17.166Z,19.55
2022-11-10T08:05:45.165Z,17.04
2022-11-10T08:08:12.681Z,17.35
2022-11-10T08:10:40.831Z,17.96
2022-11-10T08:13:09.727Z,18.19
2022-11-10T08:15:37.380Z,19.85
2022-11-10T08:18:24.118Z,20.08
2022-11-10T08:20:51.210Z,19.75
2022-11-10T08:23:18.101Z,20.86
2022-11-10T08:25:44.866Z,18.86
2022-11-10T08:28:14.413Z,18.36
2022-11-10T08:30:43.351Z,18.16
2022-11-10T08:33:12.751Z,18.89
2022-11-10T08:35:42.205Z,17.87
2022-11-10T08:38:10.059Z,17.83
2022-11-10T08:40:38.000Z,17.36
2022-11-10T08:43:07.579Z,17.50
2022-11-10T08:45:38.623Z,17.13
2022-11-10T08:48:08.126Z,18.60
2022-11-10T08:50:34.853Z,19.60
2022-11-10T08:53:03.884Z,19.83
2022-11-10T08:55:30.762Z,18.15
2022-11-10T08:58:02.837Z,18.49
2022-11-10T09:00:31.330Z,18.18
2022-11-10T09:03:05.617Z,18.58
2022-11-10T09:05:32.720Z,18.88
2022-11-10T09:07:59.369Z,18.49
2022-11-10T09:10:25.998Z,17.49
2022-11-10T09:12:52.724Z,17.94
2022-11-10T09:15:20.016Z,18.42
2022-11-10T09:17:46.704Z,18.68
2022-11-10T09:20:13.808Z,18.54
2022-11-10T09:22:40.585Z,19.19
2022-11-10T09:25:07.626Z,18.95
2022-11-10T09:27:37.485Z,18.53
2022-11-10T09:30:06.470Z,18.74
2022-11-10T09:32:33.291Z,18.24
2022-11-10T09:35:00.591Z,18.63
2022-11-10T09:37:27.578Z,18.60
2022-11-10T09:39:54.570Z,18.72
2022-11-10T09:42:34.831Z,18.82
2022-11-10T09:45:19.759Z,19.49
2022-11-10T09:47:58.585Z,18.97
2022-11-10T09:50:34.829Z,19.68
2022-11-10T09:53:02.676Z,19.20
2022-11-10T09:55:41.423Z,19.03
2022-11-10T09:58:12.810Z,19.18
2022-11-10T10:00:42.737Z,18.89
2022-11-10T10:03:18.555Z,19.18
2022-11-10T10:06:02.631Z,19.02
2022-11-10T10:08:49.635Z,19.10
2022-11-10T10:11:32.346Z,19.00
2022-11-10T10:14:12.299Z,19.44
2022-11-10T10:16:57.167Z,19.36
2022-11-10T10:19:26.874Z,19.40
2022-11-10T10:22:35.934Z,19.59
2022-11-10T10:25:12.067Z,19.36
2022-11-10T10:27:40.859Z,19.41
2022-11-10T10:30:19.608Z,19.80
2022-11-10T10:32:46.321Z,19.69
2022-11-10T10:35:17.615Z,19.74
2022-11-10T10:37:47.989Z,20.05
2022-11-10T10:40:21.618Z,20.45
2022-11-10T10:42:48.741Z,20.35
2022-11-10T10:45:23.160Z,20.37
2022-11-10T10:47:55.480Z,20.28
2022-11-10T10:50:23.074Z,20.50
2022-11-10T10:53:14.090Z,20.37
2022-11-10T10:56:05.021Z,19.73
2022-11-10T10:58:36.210Z,20.54
2022-11-10T11:01:03.723Z,20.29
2022-11-10T11:03:48.507Z,20.58
2022-11-10T11:06:15.112Z,20.61
2022-11-10T11:09:06.785Z,20.20
2022-11-10T11:11:36.681Z,20.58
2022-11-10T11:14:25.059Z,20.90
2022-11-10T11:17:03.840Z,20.22
2022-11-10T11:19:37.700Z,20.07
2022-11-10T11:22:10.533Z,20.28
2022-11-10T11:25:15.225Z,20.96
2022-11-10T11:28:10.348Z,21.66
2022-11-10T11:30:49.454Z,21.96
2022-11-10T11:33:45.313Z,21.33
2022-11-10T11:36:24.665Z,20.86
2022-11-10T11:38:58.383Z,21.54
2022-11-10T11:41:45.347Z,21.61
2022-11-10T11:44:52.507Z,21.14
2022-11-10T11:47:41.713Z,21.00
2022-11-10T11:50:20.054Z,21.42
2022-11-10T11:52:55.941Z,21.82
2022-11-10T11:55:25.857Z,21.84
2022-11-10T11:58:00.376Z,21.46
2022-11-10T12:00:35.992Z,21.45
2022-11-10T12:03:31.225Z,21.32
2022-11-10T12:06:09.931Z,20.46
2022-11-10T12:08:54.986Z,20.31
2022-11-10T12:11:46.528Z,20.75
2022-11-10T12:14:22.272Z,20.99
2022-11-10T12:17:26.930Z,20.62
2022-11-10T12:20:19.088Z,20.63
2022-11-10T12:22:51.876Z,20.53
2022-11-10T12:25:42.429Z,20.39
2022-11-10T12:28:18.559Z,19.96
2022-11-10T12:30:49.403Z,20.44
2022-11-10T12:33:34.887Z,19.34
2022-11-10T12:36:06.158Z,19.54
2022-11-10T12:39:01.010Z,19.84
2022-11-10T12:41:59.716Z,19.70
2022-11-10T12:44:32.523Z,20.15
2022-11-10T12:47:05.701Z,19.88
2022-11-10T12:49:37.128Z,20.46
2022-11-10T12:52:13.373Z,19.88
2022-11-10T12:54:42.573Z,18.74
2022-11-10T12:57:18.569Z,19.12
2022-11-10T13:00:37.786Z,18.99
2022-11-10T13:03:04.747Z,18.79
2022-11-10T13:05:45.532Z,18.39
2022-11-10T13:08:12.222Z,18.45
2022-11-10T13:10:52.745Z,18.31
2022-11-10T13:13:20.179Z,18.31
2022-11-10T13:15:50.859Z,18.15
2022-11-10T13:18:37.713Z,18.01
2022-11-10T13:21:04.467Z,17.90
2022-11-10T13:23:37.920Z,17.96
2022-11-10T13:26:09.345Z,17.88
2022-11-10T13:29:02.729Z,17.47
2022-11-10T13:31:29.456Z,17.73
2022-11-10T13:34:08.661Z,17.30
2022-11-10T13:36:44.481Z,17.29
2022-11-10T13:39:24.322Z,16.86
2022-11-10T13:42:11.391Z,16.96
2022-11-10T13:44:42.088Z,17.09
2022-11-10T13:47:08.787Z,16.75
2022-11-10T13:50:01.083Z,16.90
2022-11-10T13:52:43.203Z,16.94
2022-11-10T13:55:26.917Z,16.96
2022-11-10T13:58:00.224Z,16.62
2022-11-10T14:00:32.455Z,16.55
2022-11-10T14:03:01.411Z,16.17
2022-11-10T14:05:42.095Z,16.12
2022-11-10T14:08:15.851Z,16.04
2022-11-10T14:11:02.340Z,15.99
2022-11-10T14:13:43.024Z,15.89
2022-11-10T14:16:31.711Z,15.61
2022-11-10T14:19:03.704Z,15.41
2022-11-10T14:21:54.034Z,15.09
2022-11-10T14:24:36.082Z,14.84
2022-11-10T14:27:13.279Z,14.77
2022-11-10T14:29:40.813Z,14.31
2022-11-10T14:32:22.654Z,14.25
2022-11-10T14:34:52.219Z,14.05
2022-11-10T14:37:28.920Z,13.82
2022-11-10T14:39:58.861Z,13.65
2022-11-10T14:42:33.487Z,13.18
2022-11-10T14:45:18.591Z,12.96
2022-11-10T14:47:54.029Z,12.91
2022-11-10T14:50:25.561Z,12.96
2022-11-10T14:52:57.415Z,13.03
2022-11-10T14:55:28.142Z,13.08
2022-11-10T14:58:10.483Z,13.01
2022-11-10T15:00:39.612Z,12.99
2022-11-10T15:03:08.273Z,12.84
2022-11-10T15:05:35.490Z,12.65
2022-11-10T15:08:03.896Z,12.38
2022-11-10T15:10:39.714Z,12.17
2022-11-10T15:13:19.717Z,12.29
2022-11-10T15:15:46.544Z,12.23
2022-11-10T15:18:26.684Z,12.17
2022-11-10T15:21:07.800Z,11.81
2022-11-10T15:23:40.361Z,11.63
2022-11-10T15:26:17.880Z,11.55
2022-11-10T15:28:46.967Z,11.30
2022-11-10T15:31:34.527Z,10.98
2022-11-10T15:34:03.781Z,10.84
2022-11-10T15:36:32.303Z,11.00
2022-11-10T15:39:06.822Z,10.74
2022-11-10T15:41:35.330Z,10.47
2022-11-10T15:44:22.566Z,10.56
2022-11-10T15:46:52.877Z,10.53
2022-11-10T15:49:30.362Z,10.42
2022-11-10T15:52:00.782Z,10.36
2022-11-10T15:54:30.379Z,10.22
2022-11-10T15:56:57.126Z,10.30
2022-11-10T15:59:23.845Z,10.11
2022-11-10T16:01:51.086Z,10.03
2022-11-10T16:04:17.908Z,10.00
2022-11-10T16:06:45.832Z,9.70
2022-11-10T16:09:13.595Z,9.28
2022-11-10T16:11:44.889Z,9.34
2022-11-10T16:14:15.753Z,9.21
2022-11-10T16:16:43.085Z,9.13
2022-11-10T16:19:13.206Z,8.82
2022-11-10T16:21:40.022Z,8.84
2022-11-10T16:24:06.911Z,8.76
2022-11-10T16:26:34.769Z,8.70
2022-11-10T16:29:02.158Z,8.76
2022-11-10T16:31:30.356Z,8.86
2022-11-10T16:33:57.034Z,8.59
2022-11-10T16:36:26.432Z,8.46
2022-11-10T16:38:54.474Z,8.40
2022-11-10T16:41:22.149Z,8.33
2022-11-10T16:43:49.613Z,8.45
2022-11-10T16:46:21.945Z,8.47
2022-11-10T16:48:51.001Z,8.53
2022-11-10T16:51:18.426Z,8.39
2022-11-10T16:53:45.645Z,7.94
2022-11-10T16:56:15.079Z,7.93
2022-11-10T16:58:42.069Z,7.81
2022-11-10T17:01:30.163Z,7.93
2022-11-10T17:04:00.583Z,7.99
2022-11-10T17:06:29.666Z,7.14
2022-11-10T17:09:08.024Z,7.64
2022-11-10T17:11:44.380Z,7.78
2022-11-10T17:14:14.766Z,7.58
2022-11-10T17:16:44.664Z,7.66
2022-11-10T17:19:24.827Z,7.46
2022-11-10T17:21:54.063Z,7.41
2022-11-10T17:24:21.491Z,7.34
2022-11-10T17:26:48.957Z,7.57
2022-11-10T17:29:21.644Z,7.50
2022-11-10T17:31:50.569Z,7.55
2022-11-10T17:34:17.909Z,7.43
2022-11-10T17:36:45.081Z,7.51
2022-11-10T17:39:17.397Z,7.49
2022-11-10T17:41:44.868Z,6.48
2022-11-10T17:44:17.826Z,6.76
2022-11-10T17:46:45.051Z,7.41
2022-11-10T17:49:11.866Z,7.47
2022-11-10T17:51:40.549Z,7.41
2022-11-10T17:54:13.450Z,7.17
2022-11-10T17:56:40.292Z,6.97
2022-11-10T17:59:07.063Z,6.98
2022-11-10T18:01:33.745Z,6.78
2022-11-10T18:04:00.563Z,6.74
2022-11-10T18:06:27.277Z,6.46
2022-11-10T18:08:53.945Z,6.80
2022-11-10T18:11:20.594Z,6.94
2022-11-10T18:13:47.344Z,6.81
2022-11-10T18:16:14.319Z,6.70
2022-11-10T18:18:41.652Z,6.45
2022-11-10T18:21:09.657Z,6.46
2022-11-10T18:23:36.325Z,6.70
2022-11-10T18:26:07.583Z,6.54
2022-11-10T18:28:35.404Z,6.66
2022-11-10T18:31:12.306Z,6.32
2022-11-10T18:33:39.141Z,6.16
2022-11-10T18:36:06.502Z,6.03
2022-11-10T18:38:33.394Z,6.31
2022-11-10T18:41:24.624Z,6.44
2022-11-10T18:43:51.696Z,6.20
2022-11-10T18:46:18.330Z,6.34
2022-11-10T18:48:45.752Z,6.11
2022-11-10T18:51:12.940Z,6.47
2022-11-10T18:53:39.859Z,6.52
2022-11-10T18:56:06.775Z,6.54
2022-11-10T18:58:33.480Z,6.55
2022-11-10T19:01:05.894Z,6.13
2022-11-10T19:03:32.917Z,6.11
2022-11-10T19:05:59.919Z,6.21
2022-11-10T19:08:29.487Z,6.04
2022-11-10T19:10:56.391Z,5.90
2022-11-10T19:13:24.201Z,5.83
2022-11-10T19:15:51.482Z,5.62
2022-11-10T19:18:18.189Z,5.53
2022-11-10T19:20:44.827Z,5.32
2022-11-10T19:23:11.502Z,5.41
2022-11-10T19:25:38.432Z,5.37
2022-11-10T19:28:05.279Z,5.72
2022-11-10T19:30:31.993Z,5.69
2022-11-10T19:32:58.799Z,5.63
2022-11-10T19:35:25.473Z,5.46
2022-11-10T19:37:54.120Z,5.39
2022-11-10T19:40:21.945Z,5.33
2022-11-10T19:42:48.985Z,5.49
2022-11-10T19:45:16.810Z,5.37
2022-11-10T19:47:43.479Z,5.45
2022-11-10T19:50:10.433Z,5.32
2022-11-10T19:52:37.141Z,5.47
2022-11-10T19:55:04.223Z,5.17
2022-11-10T19:57:30.974Z,5.19
2022-11-10T19:59:57.651Z,4.81
2022-11-10T20:02:24.327Z,5.01
2022-11-10T20:05:09.597Z,4.90
2022-11-10T20:07:55.252Z,5.20
2022-11-10T20:10:22.136Z,5.08
2022-11-10T20:12:48.839Z,5.07
2022-11-10T20:15:15.570Z,4.65
2022-11-10T20:17:42.537Z,4.66
2022-11-10T20:20:09.407Z,4.74
2022-11-10T20:22:36.191Z,4.91
2022-11-10T20:25:03.466Z,4.72
2022-11-10T20:27:30.397Z,4.51
2022-11-10T20:29:57.570Z,4.64
2022-11-10T20:32:25.165Z,4.28
2022-11-10T20:34:51.951Z,4.39
2022-11-10T20:37:19.242Z,4.85
2022-11-10T20:39:45.903Z,4.73
2022-11-10T20:42:13.446Z,4.63
2022-11-10T20:44:40.353Z,4.54
2022-11-10T20:47:07.655Z,4.45
2022-11-10T20:49:34.442Z,4.41
2022-11-10T20:52:01.180Z,4.77
2022-11-10T20:54:27.890Z,4.87
2022-11-10T20:56:54.921Z,4.86
2022-11-10T20:59:21.672Z,4.70
2022-11-10T21:01:48.918Z,4.60
2022-11-10T21:04:15.770Z,4.53
2022-11-10T21:06:42.492Z,4.63
2022-11-10T21:09:09.408Z,4.67
2022-11-10T21:11:54.732Z,4.66
2022-11-10T21:14:21.451Z,4.38
2022-11-10T21:16:48.046Z,4.61
2022-11-10T21:19:14.768Z,4.40
2022-11-10T21:21:41.447Z,4.40
2022-11-10T21:24:09.440Z,4.34
2022-11-10T21:26:37.756Z,4.14
2022-11-10T21:29:07.649Z,4.19
2022-11-10T21:31:34.366Z,4.21
2022-11-10T21:34:01.114Z,4.26
2022-11-10T21:36:31.661Z,4.12
2022-11-10T21:38:59.204Z,4.23
2022-11-10T21:41:26.168Z,4.09
2022-11-10T21:43:52.979Z,3.97
2022-11-10T21:46:19.695Z,4.02
2022-11-10T21:48:46.700Z,3.85
2022-11-10T21:51:14.418Z,4.08
2022-11-10T21:53:42.351Z,4.07
2022-11-10T21:56:10.737Z,4.15
2022-11-10T21:58:38.517Z,4.24
2022-11-10T22:01:07.569Z,4.33
2022-11-10T22:03:35.119Z,4.31
2022-11-10T22:06:07.707Z,4.10
2022-11-10T22:08:35.301Z,4.10
2022-11-10T22:11:21.036Z,4.12
2022-11-10T22:14:06.110Z,4.05
2022-11-10T22:16:56.165Z,3.97
2022-11-10T22:19:23.324Z,3.92
2022-11-10T22:21:50.010Z,3.89
2022-11-10T22:24:28.713Z,3.70
2022-11-10T22:26:57.690Z,3.74
2022-11-10T22:29:31.228Z,3.71
2022-11-10T22:31:59.930Z,3.85
2022-11-10T22:34:26.643Z,3.89
2022-11-10T22:36:54.761Z,3.92
2022-11-10T22:39:21.784Z,3.66
2022-11-10T22:42:07.341Z,3.83
2022-11-10T22:44:34.061Z,3.75
2022-11-10T22:47:00.723Z,3.49
2022-11-10T22:49:27.397Z,3.68
2022-11-10T22:51:55.344Z,3.70
2022-11-10T22:54:23.819Z,3.61
2022-11-10T22:56:53.837Z,3.71
2022-11-10T22:59:21.012Z,3.73
2022-11-10T23:01:47.702Z,3.60
2022-11-10T23:04:16.125Z,3.61
2022-11-10T23:06:43.161Z,3.61
2022-11-10T23:09:09.893Z,3.62
2022-11-10T23:11:36.865Z,3.66
2022-11-10T23:14:03.715Z,3.71
2022-11-10T23:16:33.896Z,3.49
2022-11-10T23:19:00.641Z,3.42
2022-11-10T23:21:29.163Z,3.50
2022-11-10T23:23:56.781Z,3.39
2022-11-10T23:26:26.087Z,3.42
2022-11-10T23:28:53.614Z,3.35
2022-11-10T23:31:22.815Z,3.31
2022-11-10T23:33:52.392Z,3.21
2022-11-10T23:36:20.961Z,3.19
2022-11-10T23:38:51.052Z,3.19
2022-11-10T23:41:20.005Z,3.20
2022-11-10T23:43:47.526Z,3.16
2022-11-10T23:46:14.594Z,3.19
2022-11-10T23:48:41.852Z,3.30
2022-11-10T23:51:11.611Z,3.28
2022-11-10T23:53:38.567Z,3.23
2022-11-10T23:56:10.525Z,3.04
2022-11-10T23:58:37.302Z,3.10
